sensor_id;sensor_type;location;lat;lon;timestamp;temperature;humidity
68701;DHT22;55682;51.114;5.882;2023-03-01T00:01:53;1.12;68.17
68701;DHT22;55682;51.114;5.882;2023-03-01T00:04:18;1.10;68.52
68701;DHT22;55682;51.114;5.882;2023-03-01T00:06:44;1.08;68.87
68701;DHT22;55682;51.114;5.882;2023-03-01T00:09:12;1.07;69.18
68701;DHT22;55682;51.114;5.882;2023-03-01T00:11:38;1.07;69.44
68701;DHT22;55682;51.114;5.882;2023-03-01T00:14:04;1.05;69.61
68701;DHT22;55682;51.114;5.882;2023-03-01T00:16:37;1.04;69.74
68701;DHT22;55682;51.114;5.882;2023-03-01T00:19:18;1.04;69.85
68701;DHT22;55682;51.114;5.882;2023-03-01T00:21:44;1.06;70.02
68701;DHT22;55682;51.114;5.882;2023-03-01T00:24:11;1.05;70.05
68701;DHT22;55682;51.114;5.882;2023-03-01T00:26:37;1.04;70.29
68701;DHT22;55682;51.114;5.882;2023-03-01T00:29:03;0.99;70.49
68701;DHT22;55682;51.114;5.882;2023-03-01T00:31:31;0.98;70.71
68701;DHT22;55682;51.114;5.882;2023-03-01T00:34:00;0.98;70.81
68701;DHT22;55682;51.114;5.882;2023-03-01T00:36:33;0.96;70.91
68701;DHT22;55682;51.114;5.882;2023-03-01T00:38:59;0.95;70.95
68701;DHT22;55682;51.114;5.882;2023-03-01T00:41:25;0.98;70.87
68701;DHT22;55682;51.114;5.882;2023-03-01T00:43:54;0.96;70.88
68701;DHT22;55682;51.114;5.882;2023-03-01T00:46:23;0.90;71.02
68701;DHT22;55682;51.114;5.882;2023-03-01T00:48:49;0.88;71.10
68701;DHT22;55682;51.114;5.882;2023-03-01T00:51:25;0.83;71.34
68701;DHT22;55682;51.114;5.882;2023-03-01T00:53:53;0.83;71.32
68701;DHT22;55682;51.114;5.882;2023-03-01T00:56:19;0.78;71.31
68701;DHT22;55682;51.114;5.882;2023-03-01T00:58:45;0.75;71.30
68701;DHT22;55682;51.114;5.882;2023-03-01T01:01:14;0.73;71.32
68701;DHT22;55682;51.114;5.882;2023-03-01T01:03:55;0.69;71.29
68701;DHT22;55682;51.114;5.882;2023-03-01T01:06:27;0.67;71.21
68701;DHT22;55682;51.114;5.882;2023-03-01T01:08:54;0.65;71.07
68701;DHT22;55682;51.114;5.882;2023-03-01T01:11:22;0.62;71.07
68701;DHT22;55682;51.114;5.882;2023-03-01T01:13:48;0.60;71.00
68701;DHT22;55682;51.114;5.882;2023-03-01T01:16:17;0.59;70.87
68701;DHT22;55682;51.114;5.882;2023-03-01T01:18:43;0.54;70.91
68701;DHT22;55682;51.114;5.882;2023-03-01T01:21:11;0.52;70.96
68701;DHT22;55682;51.114;5.882;2023-03-01T01:23:39;0.50;70.90
68701;DHT22;55682;51.114;5.882;2023-03-01T01:26:09;0.49;70.88
68701;DHT22;55682;51.114;5.882;2023-03-01T01:28:35;0.46;70.90
68701;DHT22;55682;51.114;5.882;2023-03-01T01:31:01;0.44;70.87
68701;DHT22;55682;51.114;5.882;2023-03-01T01:33:27;0.43;70.93
68701;DHT22;55682;51.114;5.882;2023-03-01T01:35:53;0.39;70.97
68701;DHT22;55682;51.114;5.882;2023-03-01T01:38:19;0.39;70.93
68701;DHT22;55682;51.114;5.882;2023-03-01T01:40:46;0.35;70.98
68701;DHT22;55682;51.114;5.882;2023-03-01T01:43:23;0.32;71.12
68701;DHT22;55682;51.114;5.882;2023-03-01T01:45:49;0.29;71.20
68701;DHT22;55682;51.114;5.882;2023-03-01T01:48:26;0.27;71.22
68701;DHT22;55682;51.114;5.882;2023-03-01T01:51:10;0.23;71.39
68701;DHT22;55682;51.114;5.882;2023-03-01T01:53:37;0.21;71.48
68701;DHT22;55682;51.114;5.882;2023-03-01T01:56:07;0.20;71.56
68701;DHT22;55682;51.114;5.882;2023-03-01T01:58:34;0.18;71.58
68701;DHT22;55682;51.114;5.882;2023-03-01T02:01:01;0.17;71.71
68701;DHT22;55682;51.114;5.882;2023-03-01T02:03:32;0.15;71.79
68701;DHT22;55682;51.114;5.882;2023-03-01T02:08:49;0.12;71.90
68701;DHT22;55682;51.114;5.882;2023-03-01T02:11:18;0.10;71.90
68701;DHT22;55682;51.114;5.882;2023-03-01T02:13:47;0.05;72.02
68701;DHT22;55682;51.114;5.882;2023-03-01T02:16:16;0.03;72.13
68701;DHT22;55682;51.114;5.882;2023-03-01T02:18:43;0.02;72.22
68701;DHT22;55682;51.114;5.882;2023-03-01T02:24:31;-0.08;72.64
68701;DHT22;55682;51.114;5.882;2023-03-01T02:26:56;-0.11;72.87
68701;DHT22;55682;51.114;5.882;2023-03-01T02:29:26;-0.11;72.92
68701;DHT22;55682;51.114;5.882;2023-03-01T02:31:56;-0.14;72.99
68701;DHT22;55682;51.114;5.882;2023-03-01T02:34:26;-0.14;73.17
68701;DHT22;55682;51.114;5.882;2023-03-01T02:37:02;-0.14;73.19
68701;DHT22;55682;51.114;5.882;2023-03-01T02:39:39;-0.19;73.42
68701;DHT22;55682;51.114;5.882;2023-03-01T02:42:12;-0.19;73.67
68701;DHT22;55682;51.114;5.882;2023-03-01T02:44:38;-0.20;73.95
68701;DHT22;55682;51.114;5.882;2023-03-01T02:47:04;-0.23;74.10
68701;DHT22;55682;51.114;5.882;2023-03-01T02:49:34;-0.23;74.09
68701;DHT22;55682;51.114;5.882;2023-03-01T02:52:04;-0.26;74.29
68701;DHT22;55682;51.114;5.882;2023-03-01T02:57:23;-0.29;74.55
68701;DHT22;55682;51.114;5.882;2023-03-01T02:59:52;-0.31;74.61
68701;DHT22;55682;51.114;5.882;2023-03-01T03:02:23;-0.36;74.75
68701;DHT22;55682;51.114;5.882;2023-03-01T03:05:10;-0.40;74.92
68701;DHT22;55682;51.114;5.882;2023-03-01T03:07:39;-0.46;75.32
68701;DHT22;55682;51.114;5.882;2023-03-01T03:10:10;-0.50;75.73
68701;DHT22;55682;51.114;5.882;2023-03-01T03:12:37;-0.45;75.60
68701;DHT22;55682;51.114;5.882;2023-03-01T03:15:05;-0.49;75.47
68701;DHT22;55682;51.114;5.882;2023-03-01T03:17:38;-0.51;75.57
68701;DHT22;55682;51.114;5.882;2023-03-01T03:20:06;-0.50;75.60
68701;DHT22;55682;51.114;5.882;2023-03-01T03:22:40;-0.52;75.51
68701;DHT22;55682;51.114;5.882;2023-03-01T03:25:09;-0.51;75.51
68701;DHT22;55682;51.114;5.882;2023-03-01T03:27:42;-0.52;75.51
68701;DHT22;55682;51.114;5.882;2023-03-01T03:30:11;-0.55;75.44
68701;DHT22;55682;51.114;5.882;2023-03-01T03:32:39;-0.57;75.47
68701;DHT22;55682;51.114;5.882;2023-03-01T03:35:07;-0.58;75.44
68701;DHT22;55682;51.114;5.882;2023-03-01T03:37:37;-0.59;75.46
68701;DHT22;55682;51.114;5.882;2023-03-01T03:40:21;-0.60;75.47
68701;DHT22;55682;51.114;5.882;2023-03-01T03:42:47;-0.61;75.35
68701;DHT22;55682;51.114;5.882;2023-03-01T03:45:14;-0.60;75.38
68701;DHT22;55682;51.114;5.882;2023-03-01T03:47:39;-0.61;75.41
68701;DHT22;55682;51.114;5.882;2023-03-01T03:50:05;-0.61;75.26
68701;DHT22;55682;51.114;5.882;2023-03-01T03:52:31;-0.62;75.12
68701;DHT22;55682;51.114;5.882;2023-03-01T03:54:57;-0.65;75.15
68701;DHT22;55682;51.114;5.882;2023-03-01T03:57:22;-0.67;75.41
68701;DHT22;55682;51.114;5.882;2023-03-01T03:59:48;-0.64;75.43
68701;DHT22;55682;51.114;5.882;2023-03-01T04:02:13;-0.67;75.46
68701;DHT22;55682;51.114;5.882;2023-03-01T04:04:48;-0.68;75.71
68701;DHT22;55682;51.114;5.882;2023-03-01T04:07:16;-0.66;75.92
68701;DHT22;55682;51.114;5.882;2023-03-01T04:09:42;-0.69;75.90
68701;DHT22;55682;51.114;5.882;2023-03-01T04:12:08;-0.72;76.09
68701;DHT22;55682;51.114;5.882;2023-03-01T04:14:34;-0.68;76.28
68701;DHT22;55682;51.114;5.882;2023-03-01T04:17:00;-0.69;76.39
68701;DHT22;55682;51.114;5.882;2023-03-01T04:19:26;-0.73;76.67
68701;DHT22;55682;51.114;5.882;2023-03-01T04:21:53;-0.74;76.56
68701;DHT22;55682;51.114;5.882;2023-03-01T04:24:19;-0.75;76.57
68701;DHT22;55682;51.114;5.882;2023-03-01T04:26:44;-0.77;76.65
68701;DHT22;55682;51.114;5.882;2023-03-01T04:29:10;-0.83;77.05
68701;DHT22;55682;51.114;5.882;2023-03-01T04:31:36;-0.80;76.91
68701;DHT22;55682;51.114;5.882;2023-03-01T04:34:01;-0.83;76.77
68701;DHT22;55682;51.114;5.882;2023-03-01T04:36:29;-0.83;76.72
68701;DHT22;55682;51.114;5.882;2023-03-01T04:38:56;-0.83;76.66
68701;DHT22;55682;51.114;5.882;2023-03-01T04:41:23;-0.84;76.73
68701;DHT22;55682;51.114;5.882;2023-03-01T04:43:49;-0.82;76.71
68701;DHT22;55682;51.114;5.882;2023-03-01T04:46:18;-0.88;76.68
68701;DHT22;55682;51.114;5.882;2023-03-01T04:48:45;-0.86;76.70
68701;DHT22;55682;51.114;5.882;2023-03-01T04:51:11;-0.88;76.89
68701;DHT22;55682;51.114;5.882;2023-03-01T04:53:40;-0.90;76.97
68701;DHT22;55682;51.114;5.882;2023-03-01T04:56:07;-0.90;77.08
68701;DHT22;55682;51.114;5.882;2023-03-01T04:58:33;-0.88;77.04
68701;DHT22;55682;51.114;5.882;2023-03-01T05:00:58;-0.88;77.11
68701;DHT22;55682;51.114;5.882;2023-03-01T05:03:24;-0.88;77.27
68701;DHT22;55682;51.114;5.882;2023-03-01T05:05:51;-0.87;77.15
68701;DHT22;55682;51.114;5.882;2023-03-01T05:08:18;-0.87;77.22
68701;DHT22;55682;51.114;5.882;2023-03-01T05:10:52;-0.87;77.24
68701;DHT22;55682;51.114;5.882;2023-03-01T05:13:20;-0.87;77.24
68701;DHT22;55682;51.114;5.882;2023-03-01T05:15:57;-0.87;77.15
68701;DHT22;55682;51.114;5.882;2023-03-01T05:18:25;-0.88;77.24
68701;DHT22;55682;51.114;5.882;2023-03-01T05:21:11;-0.91;77.36
68701;DHT22;55682;51.114;5.882;2023-03-01T05:23:37;-0.89;77.25
68701;DHT22;55682;51.114;5.882;2023-03-01T05:26:06;-0.94;77.36
68701;DHT22;55682;51.114;5.882;2023-03-01T05:28:32;-0.91;77.40
68701;DHT22;55682;51.114;5.882;2023-03-01T05:30:58;-0.95;77.33
68701;DHT22;55682;51.114;5.882;2023-03-01T05:33:25;-0.93;77.27
68701;DHT22;55682;51.114;5.882;2023-03-01T05:35:51;-0.96;77.32
68701;DHT22;55682;51.114;5.882;2023-03-01T05:38:19;-0.95;77.38
68701;DHT22;55682;51.114;5.882;2023-03-01T05:40:47;-0.95;77.37
68701;DHT22;55682;51.114;5.882;2023-03-01T05:43:15;-0.96;77.34
68701;DHT22;55682;51.114;5.882;2023-03-01T05:45:42;-0.98;77.37
68701;DHT22;55682;51.114;5.882;2023-03-01T05:48:09;-1.01;77.42
68701;DHT22;55682;51.114;5.882;2023-03-01T05:50:41;-1.03;77.37
68701;DHT22;55682;51.114;5.882;2023-03-01T05:53:13;-1.04;77.44
68701;DHT22;55682;51.114;5.882;2023-03-01T05:55:41;-1.11;77.62
68701;DHT22;55682;51.114;5.882;2023-03-01T05:58:11;-1.05;77.35
68701;DHT22;55682;51.114;5.882;2023-03-01T06:00:39;-1.05;77.32
68701;DHT22;55682;51.114;5.882;2023-03-01T06:03:05;-1.06;77.27
68701;DHT22;55682;51.114;5.882;2023-03-01T06:05:31;-1.10;77.25
68701;DHT22;55682;51.114;5.882;2023-03-01T06:08:01;-1.11;77.25
68701;DHT22;55682;51.114;5.882;2023-03-01T06:10:27;-1.18;77.64
68701;DHT22;55682;51.114;5.882;2023-03-01T06:12:53;-1.19;77.60
68701;DHT22;55682;51.114;5.882;2023-03-01T06:15:19;-1.16;77.39
68701;DHT22;55682;51.114;5.882;2023-03-01T06:17:46;-1.19;77.42
68701;DHT22;55682;51.114;5.882;2023-03-01T06:20:16;-1.19;77.29
68701;DHT22;55682;51.114;5.882;2023-03-01T06:22:42;-1.17;76.99
68701;DHT22;55682;51.114;5.882;2023-03-01T06:25:10;-1.18;76.86
68701;DHT22;55682;51.114;5.882;2023-03-01T06:27:36;-1.17;76.70
68701;DHT22;55682;51.114;5.882;2023-03-01T06:30:02;-1.15;76.57
68701;DHT22;55682;51.114;5.882;2023-03-01T06:32:28;-1.13;76.33
68701;DHT22;55682;51.114;5.882;2023-03-01T06:34:54;-1.15;76.44
68701;DHT22;55682;51.114;5.882;2023-03-01T06:37:19;-1.13;76.40
68701;DHT22;55682;51.114;5.882;2023-03-01T06:39:45;-1.05;76.53
68701;DHT22;55682;51.114;5.882;2023-03-01T06:42:11;-0.82;76.66
68701;DHT22;55682;51.114;5.882;2023-03-01T06:44:37;-0.58;75.57
68701;DHT22;55682;51.114;5.882;2023-03-01T06:47:03;-0.50;74.78
68701;DHT22;55682;51.114;5.882;2023-03-01T06:49:29;-0.44;74.28
68701;DHT22;55682;51.114;5.882;2023-03-01T06:51:56;-0.44;74.45
68701;DHT22;55682;51.114;5.882;2023-03-01T06:54:21;-0.23;74.72
68701;DHT22;55682;51.114;5.882;2023-03-01T06:56:48;0.22;74.42
68701;DHT22;55682;51.114;5.882;2023-03-01T06:59:15;0.72;73.27
68701;DHT22;55682;51.114;5.882;2023-03-01T07:01:40;1.26;71.48
68701;DHT22;55682;51.114;5.882;2023-03-01T07:04:06;1.77;70.12
68701;DHT22;55682;51.114;5.882;2023-03-01T07:06:32;2.21;68.44
68701;DHT22;55682;51.114;5.882;2023-03-01T07:08:58;2.74;67.29
68701;DHT22;55682;51.114;5.882;2023-03-01T07:11:24;3.23;65.16
68701;DHT22;55682;51.114;5.882;2023-03-01T07:13:49;3.70;63.55
68701;DHT22;55682;51.114;5.882;2023-03-01T07:16:15;4.08;62.12
68701;DHT22;55682;51.114;5.882;2023-03-01T07:18:41;4.42;60.31
68701;DHT22;55682;51.114;5.882;2023-03-01T07:21:08;4.65;60.72
68701;DHT22;55682;51.114;5.882;2023-03-01T07:23:35;5.31;59.30
68701;DHT22;55682;51.114;5.882;2023-03-01T07:26:00;5.94;56.52
68701;DHT22;55682;51.114;5.882;2023-03-01T07:28:27;6.44;55.43
68701;DHT22;55682;51.114;5.882;2023-03-01T07:30:53;6.86;53.76
68701;DHT22;55682;51.114;5.882;2023-03-01T07:33:20;7.23;52.20
68701;DHT22;55682;51.114;5.882;2023-03-01T07:35:45;7.49;51.66
68701;DHT22;55682;51.114;5.882;2023-03-01T07:38:11;7.79;51.24
68701;DHT22;55682;51.114;5.882;2023-03-01T07:40:37;8.23;49.69
68701;DHT22;55682;51.114;5.882;2023-03-01T07:43:03;8.53;48.48
68701;DHT22;55682;51.114;5.882;2023-03-01T07:45:29;8.79;47.59
68701;DHT22;55682;51.114;5.882;2023-03-01T07:47:55;9.07;45.77
68701;DHT22;55682;51.114;5.882;2023-03-01T07:50:22;8.87;46.44
68701;DHT22;55682;51.114;5.882;2023-03-01T07:52:50;8.95;46.22
68701;DHT22;55682;51.114;5.882;2023-03-01T07:55:16;9.31;45.92
68701;DHT22;55682;51.114;5.882;2023-03-01T07:57:42;9.67;44.58
68701;DHT22;55682;51.114;5.882;2023-03-01T08:00:11;10.03;42.99
68701;DHT22;55682;51.114;5.882;2023-03-01T08:02:39;10.21;43.00
68701;DHT22;55682;51.114;5.882;2023-03-01T08:05:08;10.65;41.57
68701;DHT22;55682;51.114;5.882;2023-03-01T08:07:34;10.86;41.22
68701;DHT22;55682;51.114;5.882;2023-03-01T08:10:00;11.16;40.00
68701;DHT22;55682;51.114;5.882;2023-03-01T08:12:26;11.17;39.62
68701;DHT22;55682;51.114;5.882;2023-03-01T08:14:54;11.27;39.27
68701;DHT22;55682;51.114;5.882;2023-03-01T08:17:19;11.36;38.64
68701;DHT22;55682;51.114;5.882;2023-03-01T08:19:45;11.19;39.80
68701;DHT22;55682;51.114;5.882;2023-03-01T08:22:11;10.79;40.43
68701;DHT22;55682;51.114;5.882;2023-03-01T08:24:36;10.34;40.46
68701;DHT22;55682;51.114;5.882;2023-03-01T08:27:02;9.98;42.19
68701;DHT22;55682;51.114;5.882;2023-03-01T08:29:30;10.29;42.29
68701;DHT22;55682;51.114;5.882;2023-03-01T08:31:56;10.57;41.76
68701;DHT22;55682;51.114;5.882;2023-03-01T08:34:22;10.57;39.68
68701;DHT22;55682;51.114;5.882;2023-03-01T08:36:48;10.56;41.43
68701;DHT22;55682;51.114;5.882;2023-03-01T08:39:16;11.03;41.27
68701;DHT22;55682;51.114;5.882;2023-03-01T08:41:42;11.97;38.94
68701;DHT22;55682;51.114;5.882;2023-03-01T08:44:10;12.51;36.94
68701;DHT22;55682;51.114;5.882;2023-03-01T08:46:39;12.71;36.68
68701;DHT22;55682;51.114;5.882;2023-03-01T08:49:17;13.09;35.75
68701;DHT22;55682;51.114;5.882;2023-03-01T08:51:44;12.79;36.08
68701;DHT22;55682;51.114;5.882;2023-03-01T08:54:13;12.92;36.31
68701;DHT22;55682;51.114;5.882;2023-03-01T08:56:40;13.11;36.12
68701;DHT22;55682;51.114;5.882;2023-03-01T08:59:07;12.97;34.89
68701;DHT22;55682;51.114;5.882;2023-03-01T09:01:32;12.91;35.85
68701;DHT22;55682;51.114;5.882;2023-03-01T09:03:58;12.88;34.96
68701;DHT22;55682;51.114;5.882;2023-03-01T09:06:24;12.96;35.86
68701;DHT22;55682;51.114;5.882;2023-03-01T09:08:50;13.18;35.10
68701;DHT22;55682;51.114;5.882;2023-03-01T09:11:19;13.03;34.59
68701;DHT22;55682;51.114;5.882;2023-03-01T09:13:47;13.04;34.07
68701;DHT22;55682;51.114;5.882;2023-03-01T09:16:15;12.63;33.92
68701;DHT22;55682;51.114;5.882;2023-03-01T09:18:44;12.06;36.47
68701;DHT22;55682;51.114;5.882;2023-03-01T09:21:13;12.12;37.16
68701;DHT22;55682;51.114;5.882;2023-03-01T09:23:45;11.67;35.19
68701;DHT22;55682;51.114;5.882;2023-03-01T09:26:14;11.28;38.49
68701;DHT22;55682;51.114;5.882;2023-03-01T09:28:42;11.76;39.07
68701;DHT22;55682;51.114;5.882;2023-03-01T09:31:08;12.25;36.45
68701;DHT22;55682;51.114;5.882;2023-03-01T09:33:34;12.49;35.01
68701;DHT22;55682;51.114;5.882;2023-03-01T09:36:03;12.25;34.70
68701;DHT22;55682;51.114;5.882;2023-03-01T09:38:30;11.83;36.16
68701;DHT22;55682;51.114;5.882;2023-03-01T09:40:56;11.45;36.40
68701;DHT22;55682;51.114;5.882;2023-03-01T09:46:22;12.74;35.38
68701;DHT22;55682;51.114;5.882;2023-03-01T09:48:55;13.29;33.18
68701;DHT22;55682;51.114;5.882;2023-03-01T09:51:33;12.75;33.71
68701;DHT22;55682;51.114;5.882;2023-03-01T09:54:03;12.65;34.60
68701;DHT22;55682;51.114;5.882;2023-03-01T09:56:39;12.80;34.95
68701;DHT22;55682;51.114;5.882;2023-03-01T10:01:58;12.87;33.70
68701;DHT22;55682;51.114;5.882;2023-03-01T10:04:29;12.69;34.18
68701;DHT22;55682;51.114;5.882;2023-03-01T10:09:42;12.94;33.06
68701;DHT22;55682;51.114;5.882;2023-03-01T10:12:12;12.71;34.62
68701;DHT22;55682;51.114;5.882;2023-03-01T10:15:03;12.65;34.50
68701;DHT22;55682;51.114;5.882;2023-03-01T10:20:26;14.18;32.19
68701;DHT22;55682;51.114;5.882;2023-03-01T10:22:55;14.27;29.79
68701;DHT22;55682;51.114;5.882;2023-03-01T10:28:26;12.60;31.84
68701;DHT22;55682;51.114;5.882;2023-03-01T10:30:53;12.51;33.92
68701;DHT22;55682;51.114;5.882;2023-03-01T10:33:29;12.37;34.89
68701;DHT22;55682;51.114;5.882;2023-03-01T10:35:55;12.01;35.32
68701;DHT22;55682;51.114;5.882;2023-03-01T10:38:21;12.10;34.88
68701;DHT22;55682;51.114;5.882;2023-03-01T10:41:07;12.01;34.76
68701;DHT22;55682;51.114;5.882;2023-03-01T10:46:28;12.86;33.60
68701;DHT22;55682;51.114;5.882;2023-03-01T10:49:15;12.91;32.50
68701;DHT22;55682;51.114;5.882;2023-03-01T10:51:43;11.74;33.18
68701;DHT22;55682;51.114;5.882;2023-03-01T10:54:20;11.85;34.14
68701;DHT22;55682;51.114;5.882;2023-03-01T10:56:53;11.84;33.55
68701;DHT22;55682;51.114;5.882;2023-03-01T10:59:28;11.73;34.16
68701;DHT22;55682;51.114;5.882;2023-03-01T11:02:23;12.60;33.97
68701;DHT22;55682;51.114;5.882;2023-03-01T11:05:01;13.30;32.11
68701;DHT22;55682;51.114;5.882;2023-03-01T11:07:28;13.02;32.34
68701;DHT22;55682;51.114;5.882;2023-03-01T11:09:54;13.04;32.33
68701;DHT22;55682;51.114;5.882;2023-03-01T11:12:21;13.32;31.85
68701;DHT22;55682;51.114;5.882;2023-03-01T11:14:55;13.14;32.02
68701;DHT22;55682;51.114;5.882;2023-03-01T11:17:22;14.13;31.06
68701;DHT22;55682;51.114;5.882;2023-03-01T11:22:51;14.81;28.35
68701;DHT22;55682;51.114;5.882;2023-03-01T11:25:25;14.58;28.99
68701;DHT22;55682;51.114;5.882;2023-03-01T11:27:53;14.50;29.23
68701;DHT22;55682;51.114;5.882;2023-03-01T11:30:29;14.59;29.07
68701;DHT22;55682;51.114;5.882;2023-03-01T11:35:38;14.44;30.05
68701;DHT22;55682;51.114;5.882;2023-03-01T11:38:23;14.20;29.50
68701;DHT22;55682;51.114;5.882;2023-03-01T11:40:57;14.89;28.07
68701;DHT22;55682;51.114;5.882;2023-03-01T11:43:31;14.35;28.30
68701;DHT22;55682;51.114;5.882;2023-03-01T11:51:24;14.52;29.10
68701;DHT22;55682;51.114;5.882;2023-03-01T11:54:04;14.38;28.37
68701;DHT22;55682;51.114;5.882;2023-03-01T11:56:39;14.00;29.68
68701;DHT22;55682;51.114;5.882;2023-03-01T11:59:28;14.42;28.58
68701;DHT22;55682;51.114;5.882;2023-03-01T12:04:41;15.06;26.50
68701;DHT22;55682;51.114;5.882;2023-03-01T12:07:25;15.57;26.38
68701;DHT22;55682;51.114;5.882;2023-03-01T12:10:25;16.01;25.52
68701;DHT22;55682;51.114;5.882;2023-03-01T12:13:12;16.21;24.97
68701;DHT22;55682;51.114;5.882;2023-03-01T12:32:24;15.47;25.74
68701;DHT22;55682;51.114;5.882;2023-03-01T12:35:14;15.51;25.67
68701;DHT22;55682;51.114;5.882;2023-03-01T12:43:36;14.69;26.23
68701;DHT22;55682;51.114;5.882;2023-03-01T12:49:13;13.53;29.04
68701;DHT22;55682;51.114;5.882;2023-03-01T12:51:54;13.84;28.04
68701;DHT22;55682;51.114;5.882;2023-03-01T12:54:27;13.83;26.99
68701;DHT22;55682;51.114;5.882;2023-03-01T12:56:57;12.69;29.13
68701;DHT22;55682;51.114;5.882;2023-03-01T13:02:48;12.07;31.52
68701;DHT22;55682;51.114;5.882;2023-03-01T13:08:02;12.10;32.22
68701;DHT22;55682;51.114;5.882;2023-03-01T13:10:34;11.96;32.45
68701;DHT22;55682;51.114;5.882;2023-03-01T13:15:37;11.92;32.29
68701;DHT22;55682;51.114;5.882;2023-03-01T13:20:47;11.58;32.67
68701;DHT22;55682;51.114;5.882;2023-03-01T13:23:25;11.45;33.11
68701;DHT22;55682;51.114;5.882;2023-03-01T13:26:11;11.34;33.15
68701;DHT22;55682;51.114;5.882;2023-03-01T13:31:10;11.36;33.81
68701;DHT22;55682;51.114;5.882;2023-03-01T13:33:43;11.34;33.52
68701;DHT22;55682;51.114;5.882;2023-03-01T13:36:11;11.29;33.56
68701;DHT22;55682;51.114;5.882;2023-03-01T13:38:48;11.25;33.52
68701;DHT22;55682;51.114;5.882;2023-03-01T13:49:55;10.85;32.84
68701;DHT22;55682;51.114;5.882;2023-03-01T13:52:39;10.89;32.80
68701;DHT22;55682;51.114;5.882;2023-03-01T13:55:18;10.96;32.86
68701;DHT22;55682;51.114;5.882;2023-03-01T13:57:48;10.72;33.92
68701;DHT22;55682;51.114;5.882;2023-03-01T14:03:19;9.71;35.63
68701;DHT22;55682;51.114;5.882;2023-03-01T14:06:09;9.77;36.12
68701;DHT22;55682;51.114;5.882;2023-03-01T14:08:37;9.74;35.87
68701;DHT22;55682;51.114;5.882;2023-03-01T14:19:31;10.38;35.36
68701;DHT22;55682;51.114;5.882;2023-03-01T14:27:39;10.04;36.55
68701;DHT22;55682;51.114;5.882;2023-03-01T14:30:31;9.65;37.42
68701;DHT22;55682;51.114;5.882;2023-03-01T14:33:00;9.77;37.54
68701;DHT22;55682;51.114;5.882;2023-03-01T14:35:35;9.78;37.37
68701;DHT22;55682;51.114;5.882;2023-03-01T14:38:02;9.85;37.21
68701;DHT22;55682;51.114;5.882;2023-03-01T14:40:29;10.01;36.67
68701;DHT22;55682;51.114;5.882;2023-03-01T14:42:59;10.00;36.93
68701;DHT22;55682;51.114;5.882;2023-03-01T14:45:29;9.92;37.27
68701;DHT22;55682;51.114;5.882;2023-03-01T14:48:00;9.74;38.28
68701;DHT22;55682;51.114;5.882;2023-03-01T14:50:36;9.48;38.15
68701;DHT22;55682;51.114;5.882;2023-03-01T14:53:27;9.39;38.24
68701;DHT22;55682;51.114;5.882;2023-03-01T14:55:56;9.44;38.33
68701;DHT22;55682;51.114;5.882;2023-03-01T14:58:24;9.53;38.04
68701;DHT22;55682;51.114;5.882;2023-03-01T15:00:54;9.42;38.42
68701;DHT22;55682;51.114;5.882;2023-03-01T15:03:42;9.12;37.82
68701;DHT22;55682;51.114;5.882;2023-03-01T15:06:15;8.93;39.35
68701;DHT22;55682;51.114;5.882;2023-03-01T15:08:47;9.03;38.88
68701;DHT22;55682;51.114;5.882;2023-03-01T15:13:38;9.55;37.64
68701;DHT22;55682;51.114;5.882;2023-03-01T15:18:34;9.07;38.54
68701;DHT22;55682;51.114;5.882;2023-03-01T15:21:34;8.87;39.29
68701;DHT22;55682;51.114;5.882;2023-03-01T15:24:17;9.01;39.40
68701;DHT22;55682;51.114;5.882;2023-03-01T15:26:56;9.02;39.57
68701;DHT22;55682;51.114;5.882;2023-03-01T15:29:26;8.90;40.12
68701;DHT22;55682;51.114;5.882;2023-03-01T15:32:04;8.82;40.01
68701;DHT22;55682;51.114;5.882;2023-03-01T15:34:38;8.88;39.98
68701;DHT22;55682;51.114;5.882;2023-03-01T15:37:46;9.11;39.24
68701;DHT22;55682;51.114;5.882;2023-03-01T15:40:23;9.16;39.19
68701;DHT22;55682;51.114;5.882;2023-03-01T15:43:01;9.25;39.09
68701;DHT22;55682;51.114;5.882;2023-03-01T15:45:29;9.31;38.86
68701;DHT22;55682;51.114;5.882;2023-03-01T15:48:05;9.34;39.08
68701;DHT22;55682;51.114;5.882;2023-03-01T15:50:34;9.21;39.46
68701;DHT22;55682;51.114;5.882;2023-03-01T15:53:06;8.98;40.29
68701;DHT22;55682;51.114;5.882;2023-03-01T15:55:33;8.98;40.33
68701;DHT22;55682;51.114;5.882;2023-03-01T15:58:18;9.05;40.12
68701;DHT22;55682;51.114;5.882;2023-03-01T16:00:45;9.03;40.07
68701;DHT22;55682;51.114;5.882;2023-03-01T16:03:12;9.06;39.98
68701;DHT22;55682;51.114;5.882;2023-03-01T16:05:40;8.95;40.42
68701;DHT22;55682;51.114;5.882;2023-03-01T16:08:06;8.95;40.83
68701;DHT22;55682;51.114;5.882;2023-03-01T16:10:33;8.95;40.45
68701;DHT22;55682;51.114;5.882;2023-03-01T16:12:59;8.88;40.69
68701;DHT22;55682;51.114;5.882;2023-03-01T16:15:30;8.83;40.78
68701;DHT22;55682;51.114;5.882;2023-03-01T16:17:57;8.60;41.39
68701;DHT22;55682;51.114;5.882;2023-03-01T16:20:27;8.59;41.62
68701;DHT22;55682;51.114;5.882;2023-03-01T16:22:54;8.45;41.84
68701;DHT22;55682;51.114;5.882;2023-03-01T16:25:20;8.19;42.43
68701;DHT22;55682;51.114;5.882;2023-03-01T16:27:49;8.15;42.70
68701;DHT22;55682;51.114;5.882;2023-03-01T16:30:18;8.22;42.55
68701;DHT22;55682;51.114;5.882;2023-03-01T16:32:46;8.16;42.65
68701;DHT22;55682;51.114;5.882;2023-03-01T16:35:14;8.19;42.68
68701;DHT22;55682;51.114;5.882;2023-03-01T16:37:40;8.15;42.65
68701;DHT22;55682;51.114;5.882;2023-03-01T16:40:16;7.99;43.07
68701;DHT22;55682;51.114;5.882;2023-03-01T16:42:42;8.05;42.81
68701;DHT22;55682;51.114;5.882;2023-03-01T16:45:08;7.86;43.16
68701;DHT22;55682;51.114;5.882;2023-03-01T16:47:34;7.90;43.39
68701;DHT22;55682;51.114;5.882;2023-03-01T16:50:00;7.76;43.42
68701;DHT22;55682;51.114;5.882;2023-03-01T16:52:26;7.63;43.94
68701;DHT22;55682;51.114;5.882;2023-03-01T16:54:52;7.70;43.61
68701;DHT22;55682;51.114;5.882;2023-03-01T16:57:18;7.64;43.67
68701;DHT22;55682;51.114;5.882;2023-03-01T16:59:43;7.56;44.05
68701;DHT22;55682;51.114;5.882;2023-03-01T17:02:12;7.52;44.25
68701;DHT22;55682;51.114;5.882;2023-03-01T17:04:40;7.49;44.39
68701;DHT22;55682;51.114;5.882;2023-03-01T17:07:06;7.46;44.42
68701;DHT22;55682;51.114;5.882;2023-03-01T17:09:35;7.38;44.74
68701;DHT22;55682;51.114;5.882;2023-03-01T17:12:05;7.29;45.16
68701;DHT22;55682;51.114;5.882;2023-03-01T17:14:31;7.23;45.48
68701;DHT22;55682;51.114;5.882;2023-03-01T17:16:56;7.16;45.82
68701;DHT22;55682;51.114;5.882;2023-03-01T17:19:22;7.04;46.14
68701;DHT22;55682;51.114;5.882;2023-03-01T17:21:48;6.97;46.54
68701;DHT22;55682;51.114;5.882;2023-03-01T17:24:13;6.94;46.62
68701;DHT22;55682;51.114;5.882;2023-03-01T17:26:39;6.78;47.26
68701;DHT22;55682;51.114;5.882;2023-03-01T17:29:05;6.61;47.28
68701;DHT22;55682;51.114;5.882;2023-03-01T17:31:32;6.58;47.41
68701;DHT22;55682;51.114;5.882;2023-03-01T17:33:58;6.54;47.42
68701;DHT22;55682;51.114;5.882;2023-03-01T17:36:24;6.53;47.43
68701;DHT22;55682;51.114;5.882;2023-03-01T17:38:51;6.43;47.78
68701;DHT22;55682;51.114;5.882;2023-03-01T17:41:18;6.37;47.97
68701;DHT22;55682;51.114;5.882;2023-03-01T17:43:44;6.35;47.84